Ozark Regional Airport
KBPK : now visible

Airfield :











YOU CAN JOIN US ON...

 
LOGIN :

Register | Disclaimer

   EN    FR    IT 

 









Legend :    VFR   Marginal VFR   IFR   Intensive IFR   Very Intensive IFR
Visi :
Ceiling :
>= 8 km
>= 3000ft
5 to 8 km
1000 to 3000 ft
1500m to 5 km
500 to 1000 ft
800 to 1500m
200 to 500 ft
< 800m
< 200 ft
Symbols :   Thunderstorms  Fog  Heavy snow  Heavy precipitations  Wind > 20 kt






- Airport Elevation : 928 ft


KBPK - Ozark Regional

CURRENT METAR :
  • 280753Z AUTO VRB03KT 3/4SM -RA BR VV002 05/04 A3011 RMK AO2 RAB49 SLP199 P0000 T00500044

EXPIRED METARs :
  • 280712Z AUTO 00000KT 1 3/4SM BR OVC002 05/04 A3012 RMK AO2 T00500044
  • 280705Z AUTO 05003KT 2SM BR OVC002 05/04 A3012 RMK AO2 T00500044
  • 280653Z AUTO 00000KT 4SM BR OVC002 06/04 A3012 RMK AO2 SLP204 T00560044
  • 280553Z AUTO 07003KT 10SM OVC003 06/05 A3014 RMK AO2 SLP210 60001 T00610050 10061 20050 400610017 55005
  • 280541Z AUTO 00000KT 10SM OVC003 06/05 A3015 RMK AO2 T00610050
  • 280529Z AUTO 09003KT 10SM OVC004 06/05 A3015 RMK AO2 T00610050

TAF KBPK
Valid from the 28 at 06:00 until the 29 at 06:00 UTC


280540Z 2806/2906 VRB05KT P6SM VCFG OVC004
TEMPO 2808/2812 1SM -DZ BR OVC002
FM281200 05007KT 4SM BR VCSH BKN005 OVC008
FM281800 07008KT 4SM -SHRA BR VCTS BKN005 OVC012CB
PROB30 2818/2824 2SM TSRA BR OVC004CB
FM290000 06008KT 2SM -SHRA BR OVC005
KZME FIR / North America



MET'MAP, your aeronautical weather chart ! - Copyright ORBIFLY December 2007 - Disclaimer

ORBIFLY MET'MAP TEAM :

Programming & Development : Alexandra Zaïnal
Concept & original design : Baudouin d'Aumeries
Assistance for programming : Marc-Olivier Méhu
Technical & hardware support : Manuel Goepfert

Contact : metmap@orbifly.com




SOURCES & CREDITS :

   NOAA       Earth
Advisory